createdAt,value
2023-02-19T00:00:26.153Z,7.70
2023-02-19T00:02:09.761Z,4.50
2023-02-19T00:03:13.358Z,6.20
2023-02-19T00:04:21.798Z,5.80
2023-02-19T00:05:25.858Z,5.80
2023-02-19T00:06:32.651Z,5.50
2023-02-19T00:07:36.373Z,4.30
2023-02-19T00:08:40.961Z,4.80
2023-02-19T00:10:48.070Z,6.00
2023-02-19T00:11:51.641Z,6.30
2023-02-19T00:12:55.538Z,4.70
2023-02-19T00:14:00.826Z,5.60
2023-02-19T00:15:04.929Z,5.10
2023-02-19T00:16:10.137Z,6.80
2023-02-19T00:17:13.822Z,4.60
2023-02-19T00:18:17.489Z,5.50
2023-02-19T00:19:21.161Z,4.10
2023-02-19T00:20:24.900Z,4.90
2023-02-19T00:21:29.748Z,5.50
2023-02-19T00:22:33.387Z,6.80
2023-02-19T00:23:37.088Z,6.00
2023-02-19T00:24:40.644Z,6.90
2023-02-19T00:25:44.290Z,4.80
2023-02-19T00:26:48.210Z,5.10
2023-02-19T00:27:51.805Z,5.80
2023-02-19T00:28:56.972Z,5.80
2023-02-19T00:30:00.587Z,5.40
2023-02-19T00:31:09.910Z,6.80
2023-02-19T00:32:13.843Z,8.20
2023-02-19T00:33:17.680Z,6.20
2023-02-19T00:34:21.509Z,5.70
2023-02-19T00:35:25.191Z,7.00
2023-02-19T00:36:30.436Z,5.60
2023-02-19T00:37:34.027Z,7.20
2023-02-19T00:38:39.272Z,4.30
2023-02-19T00:39:43.018Z,6.20
2023-02-19T00:40:46.565Z,6.90
2023-02-19T00:41:50.963Z,4.70
2023-02-19T00:42:54.651Z,6.00
2023-02-19T00:43:59.062Z,7.40
2023-02-19T00:45:02.732Z,6.30
2023-02-19T00:46:06.358Z,6.50
2023-02-19T00:47:10.023Z,5.10
2023-02-19T00:48:15.665Z,5.70
2023-02-19T00:49:22.341Z,6.00
2023-02-19T00:50:26.445Z,7.00
2023-02-19T00:51:32.440Z,7.50
2023-02-19T00:52:36.189Z,5.90
2023-02-19T00:53:40.331Z,5.70
2023-02-19T00:54:43.974Z,5.60
2023-02-19T00:55:47.596Z,7.60
2023-02-19T00:56:51.731Z,6.60
2023-02-19T00:57:55.611Z,6.50
2023-02-19T00:58:59.325Z,6.80
2023-02-19T01:00:04.262Z,7.90
2023-02-19T01:01:08.952Z,5.60
2023-02-19T01:02:12.884Z,5.90
2023-02-19T01:03:16.576Z,6.00
2023-02-19T01:04:20.471Z,6.50
2023-02-19T01:05:24.161Z,6.60
2023-02-19T01:06:29.948Z,7.40
2023-02-19T01:07:38.156Z,5.70
2023-02-19T01:08:43.202Z,6.10
2023-02-19T01:09:46.813Z,6.50
2023-02-19T01:10:50.556Z,7.00
2023-02-19T01:11:54.208Z,7.30
2023-02-19T01:12:57.849Z,6.00
2023-02-19T01:14:02.357Z,8.00
2023-02-19T01:16:18.572Z,6.10
2023-02-19T01:17:22.250Z,7.00
2023-02-19T01:18:25.874Z,5.90
2023-02-19T01:19:29.581Z,6.70
2023-02-19T01:20:33.461Z,8.80
2023-02-19T01:21:37.157Z,7.10
2023-02-19T01:22:40.802Z,6.60
2023-02-19T01:23:44.968Z,6.90
2023-02-19T01:24:48.682Z,8.00
2023-02-19T01:25:52.233Z,6.30
2023-02-19T01:26:55.817Z,6.30
2023-02-19T01:27:59.493Z,6.20
2023-02-19T01:29:03.913Z,6.90
2023-02-19T01:30:08.642Z,6.10
2023-02-19T01:31:15.310Z,6.60
2023-02-19T01:32:18.977Z,5.30
2023-02-19T01:33:22.527Z,6.10
2023-02-19T01:34:26.973Z,7.30
2023-02-19T01:35:30.558Z,7.90
2023-02-19T01:36:34.498Z,7.60
2023-02-19T01:37:38.157Z,6.90
2023-02-19T01:38:42.012Z,6.60
2023-02-19T01:39:45.718Z,6.50
2023-02-19T01:40:57.312Z,7.90
2023-02-19T01:42:01.055Z,8.00
2023-02-19T01:43:09.821Z,5.80
2023-02-19T01:44:17.694Z,7.60
2023-02-19T01:45:31.148Z,7.50
2023-02-19T01:46:36.451Z,5.40
2023-02-19T01:47:40.380Z,6.30
2023-02-19T01:48:44.050Z,8.10
2023-02-19T01:49:54.871Z,5.10
2023-02-19T01:51:06.792Z,7.00
2023-02-19T01:52:30.774Z,6.70
2023-02-19T01:53:39.449Z,5.50
2023-02-19T01:54:45.089Z,4.60
2023-02-19T01:55:52.648Z,6.10
2023-02-19T01:56:57.371Z,5.10
2023-02-19T01:58:03.184Z,7.30
2023-02-19T01:59:07.366Z,5.30
2023-02-19T02:00:14.904Z,4.80
2023-02-19T02:01:18.538Z,4.90
2023-02-19T02:02:24.980Z,5.50
2023-02-19T02:03:29.672Z,5.50
2023-02-19T02:04:34.081Z,7.40
2023-02-19T02:05:45.522Z,5.90
2023-02-19T02:06:55.810Z,6.10
2023-02-19T02:08:21.300Z,6.00
2023-02-19T02:09:49.276Z,7.50
2023-02-19T02:10:53.237Z,5.90
2023-02-19T02:11:56.933Z,7.20
2023-02-19T02:13:00.522Z,7.30
2023-02-19T02:14:05.096Z,6.50
2023-02-19T02:16:43.085Z,7.00
2023-02-19T02:18:05.378Z,6.50
2023-02-19T02:19:42.636Z,5.70
2023-02-19T02:20:52.485Z,7.00
2023-02-19T02:22:18.363Z,8.10
2023-02-19T02:23:46.216Z,7.00
2023-02-19T02:25:09.381Z,7.00
2023-02-19T02:26:24.272Z,8.10
2023-02-19T02:27:41.296Z,8.30
2023-02-19T02:28:53.974Z,5.50
2023-02-19T02:30:09.607Z,6.40
2023-02-19T02:31:25.455Z,6.30
2023-02-19T02:33:07.608Z,6.60
2023-02-19T02:34:23.166Z,6.30
2023-02-19T02:35:32.851Z,5.30
2023-02-19T02:36:41.485Z,6.40
2023-02-19T02:37:47.086Z,4.90
2023-02-19T02:38:54.091Z,5.80
2023-02-19T02:40:00.453Z,4.60
2023-02-19T02:41:04.520Z,4.20
2023-02-19T02:42:26.854Z,4.50
2023-02-19T02:43:35.708Z,4.20
2023-02-19T02:44:42.373Z,4.40
2023-02-19T02:45:46.494Z,4.40
2023-02-19T02:47:03.561Z,6.80
2023-02-19T02:48:21.039Z,4.50
2023-02-19T02:49:25.761Z,4.00
2023-02-19T02:50:42.902Z,3.40
2023-02-19T02:51:52.159Z,5.20
2023-02-19T02:53:21.905Z,4.20
2023-02-19T02:54:52.164Z,4.00
2023-02-19T02:55:57.674Z,3.30
2023-02-19T02:57:02.331Z,4.50
2023-02-19T02:58:11.590Z,5.00
2023-02-19T02:59:18.468Z,4.10
2023-02-19T03:00:24.333Z,4.30
2023-02-19T03:01:53.047Z,4.20
2023-02-19T03:02:56.729Z,3.90
2023-02-19T03:04:08.488Z,4.80
2023-02-19T03:05:41.154Z,3.60
2023-02-19T03:06:47.402Z,4.30
2023-02-19T03:08:03.109Z,3.70
2023-02-19T03:09:15.370Z,4.30
2023-02-19T03:10:42.054Z,4.10
2023-02-19T03:12:22.216Z,4.60
2023-02-19T03:13:52.282Z,5.30
2023-02-19T03:16:50.644Z,3.40
2023-02-19T03:18:19.655Z,4.30
2023-02-19T03:19:25.562Z,3.60
2023-02-19T03:20:31.799Z,4.50
2023-02-19T03:21:38.318Z,4.60
2023-02-19T03:22:46.209Z,5.90
2023-02-19T03:24:09.504Z,4.70
2023-02-19T03:25:38.673Z,3.70
2023-02-19T03:26:44.679Z,4.50
2023-02-19T03:27:49.859Z,4.10
2023-02-19T03:29:12.752Z,4.40
2023-02-19T03:30:25.629Z,4.40
2023-02-19T03:31:31.600Z,4.10
2023-02-19T03:32:39.510Z,4.40
2023-02-19T03:33:45.996Z,3.70
2023-02-19T03:35:06.061Z,4.10
2023-02-19T03:36:15.297Z,3.90
2023-02-19T03:37:25.256Z,3.60
2023-02-19T03:38:40.892Z,4.00
2023-02-19T03:39:45.157Z,3.80
2023-02-19T03:41:04.520Z,3.50
2023-02-19T03:42:29.173Z,4.00
2023-02-19T03:44:01.557Z,3.40
2023-02-19T03:45:26.668Z,3.10
2023-02-19T03:46:41.946Z,6.00
2023-02-19T03:47:53.111Z,5.00
2023-02-19T03:49:03.637Z,3.40
2023-02-19T03:50:30.723Z,3.50
2023-02-19T03:51:44.030Z,3.50
2023-02-19T03:52:59.613Z,3.70
2023-02-19T03:54:19.168Z,3.20
2023-02-19T03:55:22.982Z,4.00
2023-02-19T03:56:43.697Z,4.20
2023-02-19T03:57:53.326Z,3.30
2023-02-19T03:59:32.611Z,3.80
2023-02-19T04:00:48.981Z,3.10
2023-02-19T04:01:57.505Z,5.80
2023-02-19T04:03:20.145Z,3.40
2023-02-19T04:04:32.506Z,3.40
2023-02-19T04:05:42.055Z,3.40
2023-02-19T04:06:52.641Z,4.00
2023-02-19T04:09:12.935Z,3.40
2023-02-19T04:10:19.002Z,5.10
2023-02-19T04:11:24.505Z,3.80
2023-02-19T04:12:29.917Z,3.50
2023-02-19T04:13:38.663Z,2.80
2023-02-19T04:14:48.362Z,5.10
2023-02-19T04:15:55.718Z,4.60
2023-02-19T04:17:03.441Z,4.90
2023-02-19T04:18:15.220Z,4.30
2023-02-19T04:19:21.609Z,3.70
2023-02-19T04:20:29.684Z,3.50
2023-02-19T04:21:34.853Z,3.70
2023-02-19T04:22:39.866Z,3.60
2023-02-19T04:23:45.367Z,4.20
2023-02-19T04:24:52.054Z,4.00
2023-02-19T04:25:59.311Z,3.80
2023-02-19T04:27:04.789Z,3.20
2023-02-19T04:28:09.294Z,3.30
2023-02-19T04:30:16.986Z,3.10
2023-02-19T04:31:20.725Z,2.90
2023-02-19T04:32:24.443Z,4.00
2023-02-19T04:33:28.028Z,3.20
2023-02-19T04:34:31.620Z,3.60
2023-02-19T04:35:35.268Z,4.00
2023-02-19T04:36:38.912Z,3.90
2023-02-19T04:37:43.381Z,4.10
2023-02-19T04:38:47.000Z,3.40
2023-02-19T04:39:50.660Z,2.40
2023-02-19T04:40:54.280Z,3.30
2023-02-19T04:41:57.816Z,2.10
2023-02-19T04:43:01.436Z,2.10
2023-02-19T04:44:05.253Z,2.30
2023-02-19T04:45:08.986Z,1.80
2023-02-19T04:46:12.518Z,1.70
2023-02-19T04:47:18.909Z,3.30
2023-02-19T04:48:22.514Z,2.20
2023-02-19T04:49:26.118Z,2.40
2023-02-19T04:50:29.869Z,2.90
2023-02-19T04:51:33.488Z,1.50
2023-02-19T04:52:37.128Z,1.60
2023-02-19T04:53:40.788Z,2.30
2023-02-19T04:54:44.344Z,1.40
2023-02-19T04:55:48.413Z,2.20
2023-02-19T04:56:52.018Z,2.30
2023-02-19T04:57:55.624Z,2.60
2023-02-19T04:58:59.266Z,1.20
2023-02-19T05:00:04.554Z,1.90
2023-02-19T05:01:09.474Z,1.60
2023-02-19T05:02:13.324Z,2.30
2023-02-19T05:03:16.914Z,1.40
2023-02-19T05:04:20.526Z,2.30
2023-02-19T05:05:24.078Z,1.40
2023-02-19T05:06:27.777Z,1.00
2023-02-19T05:07:31.469Z,2.60
2023-02-19T05:08:35.187Z,1.20
2023-02-19T05:09:38.779Z,1.30
2023-02-19T05:10:42.486Z,1.30
2023-02-19T05:11:46.093Z,1.20
2023-02-19T05:12:49.654Z,1.50
2023-02-19T05:13:55.360Z,1.30
2023-02-19T05:14:58.980Z,1.40
2023-02-19T05:16:09.577Z,1.50
2023-02-19T05:17:13.211Z,1.00
2023-02-19T05:18:16.768Z,1.50
2023-02-19T05:19:20.642Z,1.80
2023-02-19T05:20:24.164Z,1.90
2023-02-19T05:21:27.839Z,2.10
2023-02-19T05:22:31.390Z,1.50
2023-02-19T05:23:35.381Z,1.90
2023-02-19T05:24:39.002Z,1.40
2023-02-19T05:25:42.654Z,1.30
2023-02-19T05:26:48.120Z,2.70
2023-02-19T05:28:11.739Z,2.50
2023-02-19T05:30:19.136Z,1.30
2023-02-19T05:31:23.497Z,1.90
2023-02-19T05:32:27.117Z,3.70
2023-02-19T05:33:30.858Z,1.20
2023-02-19T05:34:34.568Z,2.40
2023-02-19T05:35:45.355Z,1.90
2023-02-19T05:36:49.045Z,2.20
2023-02-19T05:37:52.714Z,1.40
2023-02-19T05:38:57.654Z,1.40
2023-02-19T05:40:01.300Z,1.00
2023-02-19T05:41:15.761Z,0.90
2023-02-19T05:42:19.327Z,1.10
2023-02-19T05:43:23.000Z,1.00
2023-02-19T05:44:26.643Z,2.10
2023-02-19T05:45:30.347Z,1.80
2023-02-19T05:46:34.125Z,1.40
2023-02-19T05:47:37.782Z,0.90
2023-02-19T05:48:41.850Z,1.40
2023-02-19T05:49:45.390Z,0.80
2023-02-19T05:50:48.874Z,2.00
2023-02-19T05:51:52.541Z,1.80
2023-02-19T05:52:56.172Z,2.10
2023-02-19T05:53:59.711Z,1.10
2023-02-19T05:55:03.331Z,2.00
2023-02-19T05:56:32.949Z,1.80
2023-02-19T05:57:43.518Z,0.80
2023-02-19T05:59:51.051Z,0.90
2023-02-19T06:00:55.666Z,0.90
2023-02-19T06:01:59.254Z,1.00
2023-02-19T06:03:02.924Z,2.50
2023-02-19T06:04:06.809Z,1.20
2023-02-19T06:05:10.500Z,2.00
2023-02-19T06:06:15.596Z,2.20
2023-02-19T06:07:19.170Z,1.20
2023-02-19T06:08:22.740Z,1.60
2023-02-19T06:09:26.304Z,1.70
2023-02-19T06:10:29.874Z,1.80
2023-02-19T06:11:34.081Z,1.00
2023-02-19T06:12:38.724Z,1.60
2023-02-19T06:13:42.304Z,0.80
2023-02-19T06:14:45.941Z,1.10
2023-02-19T06:15:49.506Z,1.30
2023-02-19T06:16:53.110Z,1.50
2023-02-19T06:17:56.694Z,1.40
2023-02-19T06:19:04.152Z,1.30
2023-02-19T06:20:08.197Z,2.50
2023-02-19T06:21:12.513Z,1.30
2023-02-19T06:23:20.040Z,1.60
2023-02-19T06:24:23.621Z,1.90
2023-02-19T06:25:27.225Z,2.10
2023-02-19T06:26:30.763Z,1.50
2023-02-19T06:27:36.394Z,1.40
2023-02-19T06:28:41.328Z,1.40
2023-02-19T06:29:45.268Z,1.10
2023-02-19T06:30:51.445Z,1.40
2023-02-19T06:31:55.450Z,1.20
2023-02-19T06:32:59.194Z,1.30
2023-02-19T06:34:06.066Z,1.80
2023-02-19T06:35:09.710Z,1.00
2023-02-19T06:36:18.884Z,1.50
2023-02-19T06:37:22.405Z,1.00
2023-02-19T06:38:26.769Z,1.20
2023-02-19T06:39:30.416Z,1.90
2023-02-19T06:40:33.953Z,2.70
2023-02-19T06:41:37.512Z,2.60
2023-02-19T06:42:41.130Z,0.90
2023-02-19T06:43:44.841Z,2.00
2023-02-19T06:44:48.540Z,1.20
2023-02-19T06:45:52.096Z,1.10
2023-02-19T06:46:55.863Z,2.80
2023-02-19T06:47:59.517Z,3.20
2023-02-19T06:49:06.341Z,2.50
2023-02-19T06:50:09.898Z,2.50
2023-02-19T06:51:18.848Z,1.90
2023-02-19T06:52:22.545Z,0.90
2023-02-19T06:53:26.449Z,1.00
2023-02-19T06:54:30.216Z,1.80
2023-02-19T06:55:33.855Z,2.20
2023-02-19T06:56:42.172Z,0.90
2023-02-19T06:57:46.141Z,2.10
2023-02-19T06:58:49.832Z,2.50
2023-02-19T06:59:53.365Z,1.80
2023-02-19T07:00:57.046Z,2.20
2023-02-19T07:02:00.638Z,1.90
2023-02-19T07:03:05.613Z,1.60
2023-02-19T07:04:09.801Z,2.00
2023-02-19T07:05:13.396Z,1.30
2023-02-19T07:06:16.945Z,2.20
2023-02-19T07:07:20.609Z,1.40
2023-02-19T07:08:24.255Z,2.20
2023-02-19T07:09:28.498Z,0.90
2023-02-19T07:10:32.129Z,1.70
2023-02-19T07:11:38.015Z,2.50
2023-02-19T07:12:41.686Z,2.10
2023-02-19T07:13:45.565Z,1.70
2023-02-19T07:14:49.153Z,2.00
2023-02-19T07:15:58.958Z,0.90
2023-02-19T07:17:03.424Z,2.10
2023-02-19T07:18:10.294Z,1.10
2023-02-19T07:19:15.396Z,2.40
2023-02-19T07:20:19.103Z,1.60
2023-02-19T07:21:22.750Z,2.50
2023-02-19T07:22:27.465Z,1.20
2023-02-19T07:23:31.386Z,0.90
2023-02-19T07:24:35.015Z,1.10
2023-02-19T07:25:39.170Z,1.80
2023-02-19T07:26:42.876Z,1.10
2023-02-19T07:27:46.475Z,1.20
2023-02-19T07:28:51.759Z,1.10
2023-02-19T07:29:55.409Z,1.00
2023-02-19T07:31:04.038Z,2.20
2023-02-19T07:32:07.731Z,1.80
2023-02-19T07:33:11.469Z,1.10
2023-02-19T07:34:15.097Z,1.20
2023-02-19T07:35:18.918Z,0.90
2023-02-19T07:36:23.996Z,1.10
2023-02-19T07:37:27.619Z,0.90
2023-02-19T07:38:31.149Z,1.10
2023-02-19T07:39:34.778Z,1.30
2023-02-19T07:40:38.521Z,1.40
2023-02-19T07:41:42.144Z,2.20
2023-02-19T07:42:45.793Z,1.00
2023-02-19T07:43:49.471Z,1.00
2023-02-19T07:44:53.026Z,2.60
2023-02-19T07:45:56.903Z,1.90
2023-02-19T07:47:00.681Z,1.30
2023-02-19T07:48:04.282Z,1.10
2023-02-19T07:49:07.861Z,1.00
2023-02-19T07:50:13.932Z,0.90
2023-02-19T07:51:19.165Z,1.60
2023-02-19T07:52:22.936Z,1.20
2023-02-19T07:53:28.251Z,2.10
2023-02-19T07:54:31.992Z,1.40
2023-02-19T07:55:35.564Z,2.80
2023-02-19T07:56:39.193Z,1.20
2023-02-19T07:57:43.043Z,2.20
2023-02-19T07:58:46.837Z,1.30
2023-02-19T07:59:50.481Z,0.90
2023-02-19T08:00:54.048Z,2.20
2023-02-19T08:02:16.019Z,2.40
2023-02-19T08:03:19.765Z,1.20
2023-02-19T08:04:23.413Z,1.80
2023-02-19T08:05:36.962Z,1.10
2023-02-19T08:06:41.536Z,1.70
2023-02-19T08:07:45.165Z,1.60
2023-02-19T08:08:48.807Z,2.40
2023-02-19T08:10:12.457Z,1.30
2023-02-19T08:12:56.845Z,2.10
2023-02-19T08:14:00.582Z,1.10
2023-02-19T08:15:04.352Z,1.30
2023-02-19T08:16:21.894Z,2.30
2023-02-19T08:17:30.170Z,2.00
2023-02-19T08:18:33.836Z,1.30
2023-02-19T08:19:37.564Z,1.20
2023-02-19T08:20:41.175Z,1.40
2023-02-19T08:21:44.894Z,1.30
2023-02-19T08:22:48.457Z,1.10
2023-02-19T08:23:52.314Z,2.20
2023-02-19T08:24:55.895Z,2.30
2023-02-19T08:26:00.576Z,2.80
2023-02-19T08:27:04.246Z,2.40
2023-02-19T08:28:09.488Z,2.20
2023-02-19T08:29:13.128Z,1.20
2023-02-19T08:30:16.959Z,2.20
2023-02-19T08:31:20.806Z,1.30
2023-02-19T08:32:24.721Z,1.10
2023-02-19T08:33:30.405Z,1.10
2023-02-19T08:34:33.984Z,2.30
2023-02-19T08:35:38.060Z,3.50
2023-02-19T08:36:42.602Z,2.70
2023-02-19T08:37:46.383Z,1.60
2023-02-19T08:38:50.145Z,1.70
2023-02-19T08:39:53.696Z,1.90
2023-02-19T08:40:57.434Z,2.20
2023-02-19T08:42:01.205Z,2.00
2023-02-19T08:43:15.964Z,1.80
2023-02-19T08:44:19.696Z,1.00
2023-02-19T08:45:24.269Z,2.30
2023-02-19T08:46:27.884Z,1.70
2023-02-19T08:47:31.536Z,1.30
2023-02-19T08:48:35.718Z,2.50
2023-02-19T08:49:39.284Z,1.50
2023-02-19T08:50:42.965Z,2.40
2023-02-19T08:51:46.609Z,2.50
2023-02-19T08:52:50.375Z,2.70
2023-02-19T08:53:54.032Z,1.80
2023-02-19T08:54:58.168Z,1.50
2023-02-19T08:56:06.845Z,1.70
2023-02-19T08:57:10.513Z,2.10
2023-02-19T08:58:14.160Z,1.50
2023-02-19T08:59:20.201Z,1.60
2023-02-19T09:00:23.950Z,1.70
2023-02-19T09:01:27.695Z,2.00
2023-02-19T09:02:31.411Z,2.00
2023-02-19T09:03:35.286Z,1.40
2023-02-19T09:04:39.623Z,1.80
2023-02-19T09:05:43.332Z,1.40
2023-02-19T09:06:46.936Z,1.50
2023-02-19T09:07:50.536Z,1.70
2023-02-19T09:08:54.128Z,1.70
2023-02-19T09:09:58.534Z,1.40
2023-02-19T09:11:04.603Z,1.50
2023-02-19T09:12:10.821Z,1.30
2023-02-19T09:13:14.416Z,1.80
2023-02-19T09:14:17.992Z,2.20
2023-02-19T09:15:21.620Z,1.20
2023-02-19T09:16:25.239Z,1.40
2023-02-19T09:17:28.859Z,1.50
2023-02-19T09:18:32.607Z,1.10
2023-02-19T09:19:36.847Z,2.20
2023-02-19T09:20:40.450Z,1.40
2023-02-19T09:21:44.145Z,1.20
2023-02-19T09:22:47.737Z,1.20
2023-02-19T09:23:51.344Z,1.50
2023-02-19T09:24:55.012Z,1.40
2023-02-19T09:26:06.609Z,1.40
2023-02-19T09:27:15.611Z,2.10
2023-02-19T09:28:19.285Z,3.00
2023-02-19T09:29:25.461Z,1.50
2023-02-19T09:30:29.195Z,2.20
2023-02-19T09:31:35.205Z,1.90
2023-02-19T09:32:38.831Z,2.20
2023-02-19T09:33:47.215Z,1.60
2023-02-19T09:34:50.843Z,2.60
2023-02-19T09:35:54.538Z,2.30
2023-02-19T09:36:58.146Z,1.50
2023-02-19T09:38:03.053Z,3.30
2023-02-19T09:39:08.478Z,1.70
2023-02-19T09:40:12.527Z,1.30
2023-02-19T09:41:20.676Z,2.70
2023-02-19T09:42:27.247Z,2.00
2023-02-19T09:43:31.273Z,2.90
2023-02-19T09:44:37.218Z,2.60
2023-02-19T09:45:41.635Z,2.00
2023-02-19T09:46:48.573Z,1.90
2023-02-19T09:47:58.035Z,3.40
2023-02-19T09:49:06.515Z,3.50
2023-02-19T09:50:14.527Z,3.70
2023-02-19T09:51:18.190Z,2.90
2023-02-19T09:52:46.885Z,2.70
2023-02-19T09:53:52.104Z,2.60
2023-02-19T09:54:59.358Z,3.50
2023-02-19T09:56:04.561Z,2.60
2023-02-19T09:57:18.252Z,2.50
2023-02-19T09:58:25.700Z,2.60
2023-02-19T09:59:36.995Z,1.80
2023-02-19T10:00:40.653Z,3.10
2023-02-19T10:01:45.212Z,2.20
2023-02-19T10:02:52.380Z,1.70
2023-02-19T10:03:56.108Z,1.80
2023-02-19T10:05:00.077Z,2.80
2023-02-19T10:06:24.734Z,2.00
2023-02-19T10:07:39.266Z,3.00
2023-02-19T10:08:45.827Z,3.10
2023-02-19T10:10:01.064Z,4.30
2023-02-19T10:11:06.600Z,2.30
2023-02-19T10:12:21.518Z,3.00
2023-02-19T10:14:04.232Z,2.70
2023-02-19T10:15:20.472Z,2.50
2023-02-19T10:16:27.214Z,2.20
2023-02-19T10:17:34.420Z,3.00
2023-02-19T10:18:41.279Z,2.70
2023-02-19T10:19:44.992Z,3.10
2023-02-19T10:20:50.400Z,2.60
2023-02-19T10:21:54.105Z,3.70
2023-02-19T10:23:02.010Z,2.90
2023-02-19T10:24:07.245Z,2.70
2023-02-19T10:25:17.378Z,2.40
2023-02-19T10:26:22.719Z,4.20
2023-02-19T10:27:31.632Z,2.70
2023-02-19T10:28:36.634Z,3.40
2023-02-19T10:29:42.945Z,3.10
2023-02-19T10:30:52.941Z,2.60
2023-02-19T10:32:32.293Z,2.10
2023-02-19T10:33:49.262Z,2.80
2023-02-19T10:35:10.812Z,3.00
2023-02-19T10:36:26.496Z,2.40
2023-02-19T10:37:30.147Z,2.40
2023-02-19T10:38:40.335Z,3.30
2023-02-19T10:39:49.489Z,4.60
2023-02-19T10:41:00.108Z,2.80
2023-02-19T10:42:04.026Z,2.60
2023-02-19T10:43:22.508Z,4.00
2023-02-19T10:44:28.987Z,2.90
2023-02-19T10:45:38.644Z,4.00
2023-02-19T10:46:45.747Z,3.30
2023-02-19T10:47:50.372Z,3.60
2023-02-19T10:49:59.733Z,5.50
2023-02-19T10:51:08.080Z,6.40
2023-02-19T10:52:21.010Z,4.60
2023-02-19T10:53:41.867Z,3.70
2023-02-19T10:54:49.361Z,4.40
2023-02-19T10:56:08.021Z,3.40
2023-02-19T10:57:29.865Z,3.90
2023-02-19T10:58:37.814Z,2.80
2023-02-19T10:59:54.457Z,3.40
2023-02-19T11:01:15.149Z,4.30
2023-02-19T11:02:20.801Z,3.30
2023-02-19T11:03:24.839Z,3.80
2023-02-19T11:04:35.455Z,2.80
2023-02-19T11:05:41.395Z,4.20
2023-02-19T11:06:46.468Z,2.90
2023-02-19T11:07:53.702Z,4.40
2023-02-19T11:08:59.998Z,3.20
2023-02-19T11:10:05.640Z,4.70
2023-02-19T11:11:09.630Z,3.50
2023-02-19T11:12:23.097Z,2.50
2023-02-19T11:13:37.848Z,3.80
2023-02-19T11:14:44.454Z,3.10
2023-02-19T11:15:52.927Z,2.30
2023-02-19T11:16:58.201Z,2.70
2023-02-19T11:18:13.900Z,3.80
2023-02-19T11:19:36.534Z,4.80
2023-02-19T11:20:59.240Z,4.00
2023-02-19T11:22:32.701Z,3.20
2023-02-19T11:23:43.484Z,4.50
2023-02-19T11:26:01.016Z,2.80
2023-02-19T11:27:15.996Z,3.70
2023-02-19T11:28:31.511Z,3.00
2023-02-19T11:29:35.497Z,2.50
2023-02-19T11:30:45.070Z,3.90
2023-02-19T11:31:49.079Z,4.00
2023-02-19T11:32:52.734Z,3.00
2023-02-19T11:34:29.120Z,2.80
2023-02-19T11:35:32.705Z,2.40
2023-02-19T11:36:37.756Z,2.50
2023-02-19T11:38:09.310Z,5.00
2023-02-19T11:39:15.862Z,3.80
2023-02-19T11:40:23.761Z,3.00
2023-02-19T11:41:30.459Z,4.50
2023-02-19T11:42:59.876Z,3.10
2023-02-19T11:44:18.361Z,3.50
2023-02-19T11:45:24.950Z,4.40
2023-02-19T11:46:37.705Z,3.20
2023-02-19T11:48:16.095Z,3.90
2023-02-19T11:49:38.752Z,3.70
2023-02-19T11:51:15.104Z,3.10
2023-02-19T11:53:49.859Z,3.20
2023-02-19T11:55:21.373Z,3.60
2023-02-19T11:56:33.894Z,4.20
2023-02-19T11:57:43.212Z,4.10
2023-02-19T11:59:07.288Z,4.10
2023-02-19T12:00:21.629Z,4.50
2023-02-19T12:02:03.664Z,4.20
2023-02-19T12:03:22.444Z,3.30
2023-02-19T12:04:48.693Z,4.60
2023-02-19T12:05:52.300Z,4.10
2023-02-19T12:06:58.811Z,4.60
2023-02-19T12:08:20.990Z,3.20
2023-02-19T12:09:42.989Z,4.90
2023-02-19T12:11:05.163Z,4.70
2023-02-19T12:12:30.557Z,4.20
2023-02-19T12:13:42.961Z,4.00
2023-02-19T12:14:55.685Z,3.30
2023-02-19T12:16:14.460Z,3.80
2023-02-19T12:17:33.501Z,2.70
2023-02-19T12:19:08.448Z,3.80
2023-02-19T12:20:27.018Z,3.20
2023-02-19T12:22:01.481Z,2.90
2023-02-19T12:23:23.990Z,3.40
2023-02-19T12:24:50.238Z,3.60
2023-02-19T12:26:12.926Z,4.80
2023-02-19T12:27:39.882Z,2.00
2023-02-19T12:29:29.902Z,4.70
2023-02-19T12:30:46.131Z,4.90
2023-02-19T12:32:13.164Z,2.80
2023-02-19T12:33:34.803Z,3.70
2023-02-19T12:34:38.359Z,4.20
2023-02-19T12:36:28.079Z,3.00
2023-02-19T12:38:00.356Z,2.50
2023-02-19T12:39:22.776Z,4.40
2023-02-19T12:40:34.985Z,3.40
2023-02-19T12:41:39.109Z,3.00
2023-02-19T12:43:10.383Z,2.90
2023-02-19T12:44:19.547Z,2.70
2023-02-19T12:45:42.707Z,3.80
2023-02-19T12:46:53.945Z,2.30
2023-02-19T12:48:07.228Z,3.70
2023-02-19T12:49:15.556Z,4.10
2023-02-19T12:50:26.546Z,2.70
2023-02-19T12:51:41.343Z,2.80
2023-02-19T12:52:50.379Z,2.70
2023-02-19T12:54:06.392Z,4.10
2023-02-19T12:55:26.979Z,3.40
2023-02-19T12:56:48.850Z,2.80
2023-02-19T12:57:54.609Z,3.80
2023-02-19T12:59:24.118Z,4.20
2023-02-19T13:00:41.709Z,2.70
2023-02-19T13:01:52.597Z,4.80
2023-02-19T13:04:24.522Z,4.30
2023-02-19T13:05:43.366Z,2.70
2023-02-19T13:06:56.383Z,3.40
2023-02-19T13:08:11.515Z,4.10
2023-02-19T13:09:22.236Z,2.80
2023-02-19T13:10:44.760Z,3.40
2023-02-19T13:12:21.503Z,2.90
2023-02-19T13:13:55.572Z,2.90
2023-02-19T13:15:24.312Z,2.60
2023-02-19T13:16:33.093Z,3.70
2023-02-19T13:18:12.360Z,3.50
2023-02-19T13:19:16.005Z,3.10
2023-02-19T13:20:34.116Z,3.20
2023-02-19T13:21:56.831Z,2.80
2023-02-19T13:23:45.308Z,2.20
2023-02-19T13:24:50.724Z,3.30
2023-02-19T13:26:05.941Z,2.60
2023-02-19T13:27:30.854Z,2.90
2023-02-19T13:28:37.299Z,2.60
2023-02-19T13:29:55.477Z,4.00
2023-02-19T13:31:21.868Z,3.20
2023-02-19T13:32:28.230Z,4.20
2023-02-19T13:33:48.259Z,3.40
2023-02-19T13:35:33.333Z,3.60
2023-02-19T13:36:37.473Z,3.70
2023-02-19T13:37:41.597Z,2.40
2023-02-19T13:38:47.948Z,2.70
2023-02-19T13:39:54.427Z,4.20
2023-02-19T13:41:00.228Z,2.60
2023-02-19T13:42:04.306Z,3.50
2023-02-19T13:43:24.645Z,2.30
2023-02-19T13:44:31.179Z,2.60
2023-02-19T13:45:43.811Z,3.40
2023-02-19T13:46:49.478Z,3.20
2023-02-19T13:47:59.277Z,2.30
2023-02-19T13:49:27.589Z,3.10
2023-02-19T13:50:33.313Z,3.10
2023-02-19T13:51:36.874Z,2.70
2023-02-19T13:52:40.892Z,3.80
2023-02-19T13:53:51.753Z,2.40
2023-02-19T13:55:32.567Z,3.10
2023-02-19T13:56:37.371Z,2.60
2023-02-19T13:57:41.686Z,3.10
2023-02-19T13:59:01.483Z,3.80
2023-02-19T14:00:43.371Z,2.50
2023-02-19T14:01:50.408Z,3.40
2023-02-19T14:03:27.593Z,2.80
2023-02-19T14:04:52.699Z,3.10
2023-02-19T14:06:00.242Z,2.30
2023-02-19T14:07:03.919Z,3.50
2023-02-19T14:08:09.174Z,3.80
2023-02-19T14:09:34.263Z,2.70
2023-02-19T14:10:54.308Z,2.70
2023-02-19T14:12:04.637Z,3.30
2023-02-19T14:13:08.675Z,3.20
2023-02-19T14:14:36.475Z,2.80
2023-02-19T14:15:44.145Z,3.90
2023-02-19T14:16:47.960Z,3.90
2023-02-19T14:17:51.560Z,3.90
2023-02-19T14:18:56.249Z,4.10
2023-02-19T14:20:01.171Z,3.00
2023-02-19T14:21:15.123Z,3.10
2023-02-19T14:22:52.739Z,3.20
2023-02-19T14:23:58.163Z,3.10
2023-02-19T14:25:08.318Z,2.20
2023-02-19T14:26:12.566Z,3.90
2023-02-19T14:27:16.412Z,3.70
2023-02-19T14:28:29.882Z,2.90
2023-02-19T14:29:33.838Z,3.60
2023-02-19T14:30:48.371Z,3.30
2023-02-19T14:31:52.275Z,1.80
2023-02-19T14:33:09.632Z,3.00
2023-02-19T14:34:25.082Z,2.20
2023-02-19T14:35:37.950Z,2.20
2023-02-19T14:36:48.800Z,2.90
2023-02-19T14:39:00.824Z,3.20
2023-02-19T14:40:05.313Z,3.10
2023-02-19T14:42:23.643Z,2.50
2023-02-19T14:43:28.601Z,2.80
2023-02-19T14:44:52.339Z,2.50
2023-02-19T14:46:04.615Z,2.20
2023-02-19T14:47:13.399Z,3.30
2023-02-19T14:48:43.984Z,2.10
2023-02-19T14:49:50.341Z,3.90
2023-02-19T14:50:59.024Z,1.90
2023-02-19T14:52:08.337Z,2.40
2023-02-19T14:53:15.733Z,2.00
2023-02-19T14:54:40.361Z,3.20
2023-02-19T14:55:46.734Z,2.70
2023-02-19T14:56:53.060Z,2.80
2023-02-19T14:57:59.406Z,1.70
2023-02-19T14:59:13.235Z,1.50
2023-02-19T15:00:22.133Z,3.50
2023-02-19T15:01:28.880Z,3.10
2023-02-19T15:02:32.652Z,3.10
2023-02-19T15:03:38.586Z,2.20
2023-02-19T15:04:42.184Z,2.30
2023-02-19T15:05:45.936Z,2.60
2023-02-19T15:06:52.945Z,2.80
2023-02-19T15:08:03.073Z,2.70
2023-02-19T15:09:07.310Z,2.80
2023-02-19T15:10:14.116Z,2.90
2023-02-19T15:11:21.559Z,3.30
2023-02-19T15:12:28.752Z,1.60
2023-02-19T15:13:32.379Z,3.20
2023-02-19T15:14:36.114Z,2.70
2023-02-19T15:15:44.868Z,3.50
2023-02-19T15:16:49.736Z,1.90
2023-02-19T15:17:54.388Z,2.50
2023-02-19T15:18:59.520Z,3.20
2023-02-19T15:20:10.633Z,3.70
2023-02-19T15:21:25.203Z,3.50
2023-02-19T15:22:34.169Z,3.70
2023-02-19T15:23:38.624Z,3.50
2023-02-19T15:24:48.249Z,2.10
2023-02-19T15:25:53.051Z,3.00
2023-02-19T15:28:38.643Z,2.40
2023-02-19T15:29:53.894Z,2.20
2023-02-19T15:30:57.702Z,3.10
2023-02-19T15:32:02.273Z,2.60
2023-02-19T15:33:16.723Z,2.30
2023-02-19T15:34:25.564Z,2.20
2023-02-19T15:35:32.522Z,1.90
2023-02-19T15:36:36.181Z,3.50
2023-02-19T15:37:40.383Z,2.50
2023-02-19T15:38:44.546Z,1.80
2023-02-19T15:39:50.863Z,2.90
2023-02-19T15:40:57.701Z,2.10
2023-02-19T15:42:04.832Z,2.50